createdAt,value
2023-04-15T00:00:58.226Z,91745.22
2023-04-15T00:03:25.170Z,91753.81
2023-04-15T00:05:52.007Z,91744.34
2023-04-15T00:08:18.505Z,91738.78
2023-04-15T00:10:46.493Z,91757.69
2023-04-15T00:13:13.123Z,91749.88
2023-04-15T00:15:39.575Z,91749.53
2023-04-15T00:18:07.383Z,91750.56
2023-04-15T00:20:34.265Z,91743.69
2023-04-15T00:23:01.679Z,91741.00
2023-04-15T00:25:28.381Z,91738.97
2023-04-15T00:27:54.825Z,91737.47
2023-04-15T00:30:21.359Z,91740.16
2023-04-15T00:32:48.908Z,91737.19
2023-04-15T00:35:15.422Z,91735.44
2023-04-15T00:37:43.650Z,91735.53
2023-04-15T00:40:15.681Z,91739.78
2023-04-15T00:42:42.194Z,91739.59
2023-04-15T00:45:09.074Z,91726.66
2023-04-15T00:47:37.131Z,91736.22
2023-04-15T00:50:03.910Z,91728.13
2023-04-15T00:52:30.476Z,91729.56
2023-04-15T00:54:56.939Z,91733.19
2023-04-15T00:57:23.447Z,91730.44
2023-04-15T00:59:50.133Z,91728.47
2023-04-15T01:02:16.811Z,91726.97
2023-04-15T01:04:43.518Z,91736.81
2023-04-15T01:07:09.999Z,91732.91
2023-04-15T01:09:36.476Z,91735.59
2023-04-15T01:12:04.053Z,91729.47
2023-04-15T01:14:30.692Z,91728.47
2023-04-15T01:16:57.515Z,91736.81
2023-04-15T01:19:23.975Z,91732.19
2023-04-15T01:21:50.665Z,91734.66
2023-04-15T01:24:18.131Z,91732.25
2023-04-15T01:26:44.686Z,91733.91
2023-04-15T01:29:11.553Z,91729.22
2023-04-15T01:31:38.553Z,91728.19
2023-04-15T01:34:05.087Z,91721.97
2023-04-15T01:36:31.569Z,91721.50
2023-04-15T01:38:58.221Z,91724.03
2023-04-15T01:41:28.130Z,91721.03
2023-04-15T01:43:54.960Z,91720.03
2023-04-15T01:46:21.507Z,91724.41
2023-04-15T01:48:47.987Z,91719.97
2023-04-15T01:51:14.451Z,91721.72
2023-04-15T01:53:40.996Z,91728.31
2023-04-15T01:56:08.070Z,91722.72
2023-04-15T01:58:34.642Z,91726.72
2023-04-15T02:01:01.855Z,91729.41
2023-04-15T02:03:29.598Z,91721.25
2023-04-15T02:05:56.659Z,91728.09
2023-04-15T02:08:23.178Z,91729.31
2023-04-15T02:10:49.737Z,91723.47
2023-04-15T02:13:17.021Z,91724.41
2023-04-15T02:15:50.106Z,91722.72
2023-04-15T02:18:16.807Z,91720.78
2023-04-15T02:20:47.054Z,91724.69
2023-04-15T02:23:13.765Z,91720.50
2023-04-15T02:25:40.437Z,91724.88
2023-04-15T02:28:06.919Z,91730.94
2023-04-15T02:30:33.825Z,91724.75
2023-04-15T02:33:00.998Z,91732.69
2023-04-15T02:35:27.681Z,91730.63
2023-04-15T02:37:54.261Z,91731.16
2023-04-15T02:40:20.716Z,91735.91
2023-04-15T02:42:47.228Z,91731.28
2023-04-15T02:45:13.761Z,91738.06
2023-04-15T02:47:43.910Z,91731.19
2023-04-15T02:50:12.615Z,91730.44
2023-04-15T02:52:42.402Z,91723.31
2023-04-15T02:55:09.669Z,91731.13
2023-04-15T02:57:39.359Z,91732.13
2023-04-15T03:00:08.134Z,91737.34
2023-04-15T03:02:38.116Z,91734.16
2023-04-15T03:05:05.887Z,91729.25
2023-04-15T03:07:32.365Z,91729.44
2023-04-15T03:09:58.812Z,91733.88
2023-04-15T03:12:25.257Z,91736.13
2023-04-15T03:14:51.728Z,91726.09
2023-04-15T03:17:18.239Z,91727.09
2023-04-15T03:19:44.697Z,91736.13
2023-04-15T03:22:11.212Z,91723.13
2023-04-15T03:24:37.700Z,91729.72
2023-04-15T03:27:06.283Z,91725.53
2023-04-15T03:29:32.806Z,91719.69
2023-04-15T03:31:59.308Z,91715.03
2023-04-15T03:34:25.758Z,91715.34
2023-04-15T03:36:52.248Z,91721.94
2023-04-15T03:39:18.698Z,91716.09
2023-04-15T03:41:45.230Z,91716.81
2023-04-15T03:44:11.712Z,91709.03
2023-04-15T03:46:38.308Z,91709.97
2023-04-15T03:49:07.111Z,91701.59
2023-04-15T03:51:33.636Z,91711.34
2023-04-15T03:54:00.167Z,91716.00
2023-04-15T03:56:26.980Z,91703.97
2023-04-15T03:58:53.516Z,91700.06
2023-04-15T04:01:20.055Z,91714.25
2023-04-15T04:03:46.688Z,91709.59
2023-04-15T04:06:13.221Z,91704.22
2023-04-15T04:08:39.741Z,91711.81
2023-04-15T04:11:06.581Z,91711.81
2023-04-15T04:13:33.101Z,91720.63
2023-04-15T04:15:59.609Z,91717.94
2023-04-15T04:18:26.116Z,91705.72
2023-04-15T04:20:52.617Z,91712.19
2023-04-15T04:23:19.063Z,91715.81
2023-04-15T04:25:45.538Z,91715.94
2023-04-15T04:28:12.153Z,91712.75
2023-04-15T04:30:38.817Z,91710.28
2023-04-15T04:33:05.350Z,91718.25
2023-04-15T04:35:34.773Z,91714.91
2023-04-15T04:38:01.439Z,91710.94
2023-04-15T04:40:27.878Z,91715.41
2023-04-15T04:42:54.405Z,91718.34
2023-04-15T04:45:20.942Z,91719.28
2023-04-15T04:47:47.941Z,91718.75
2023-04-15T04:50:14.506Z,91720.13
2023-04-15T04:52:41.128Z,91726.25
2023-04-15T04:55:08.538Z,91718.91
2023-04-15T04:57:39.400Z,91726.06
2023-04-15T05:00:08.469Z,91719.66
2023-04-15T05:02:35.353Z,91715.97
2023-04-15T05:05:01.895Z,91725.50
2023-04-15T05:07:28.382Z,91722.81
2023-04-15T05:09:54.826Z,91727.44
2023-04-15T05:12:21.559Z,91725.97
2023-04-15T05:14:48.064Z,91723.28
2023-04-15T05:17:15.229Z,91725.03
2023-04-15T05:19:41.733Z,91723.56
2023-04-15T05:22:08.329Z,91728.00
2023-04-15T05:24:34.786Z,91728.00
2023-04-15T05:27:02.008Z,91724.28
2023-04-15T05:29:28.482Z,91725.78
2023-04-15T05:31:54.937Z,91728.66
2023-04-15T05:34:21.654Z,91725.88
2023-04-15T05:36:48.159Z,91730.97
2023-04-15T05:39:14.605Z,91728.75
2023-04-15T05:41:41.126Z,91728.47
2023-04-15T05:44:07.624Z,91720.97
2023-04-15T05:46:34.195Z,91715.41
2023-04-15T05:49:01.043Z,91725.44
2023-04-15T05:51:27.816Z,91722.28
2023-04-15T05:53:54.284Z,91724.97
2023-04-15T05:56:20.829Z,91721.25
2023-04-15T05:58:47.326Z,91728.94
2023-04-15T06:01:13.784Z,91716.88
2023-04-15T06:03:40.410Z,91721.88
2023-04-15T06:06:07.685Z,91713.97
2023-04-15T06:08:34.174Z,91712.19
2023-04-15T06:11:01.033Z,91714.13
2023-04-15T06:13:27.522Z,91724.03
2023-04-15T06:15:54.179Z,91709.19
2023-04-15T06:18:20.663Z,91709.53
2023-04-15T06:20:47.130Z,91709.59
2023-04-15T06:23:13.580Z,91709.94
2023-04-15T06:25:40.041Z,91713.63
2023-04-15T06:28:06.725Z,91714.84
2023-04-15T06:30:33.218Z,91721.44
2023-04-15T06:32:59.943Z,91715.97
2023-04-15T06:35:27.457Z,91710.69
2023-04-15T06:37:53.910Z,91712.44
2023-04-15T06:40:20.457Z,91716.84
2023-04-15T06:42:46.942Z,91720.75
2023-04-15T06:45:13.434Z,91715.53
2023-04-15T06:47:40.720Z,91717.56
2023-04-15T06:50:07.588Z,91713.56
2023-04-15T06:52:34.065Z,91715.03
2023-04-15T06:55:01.967Z,91725.38
2023-04-15T06:57:28.756Z,91716.25
2023-04-15T06:59:55.408Z,91722.31
2023-04-15T07:02:22.116Z,91712.34
2023-04-15T07:04:48.874Z,91720.50
2023-04-15T07:07:15.703Z,91710.00
2023-04-15T07:09:42.768Z,91716.50
2023-04-15T07:12:09.218Z,91716.16
2023-04-15T07:14:36.390Z,91708.66
2023-04-15T07:17:03.246Z,91715.28
2023-04-15T07:19:29.739Z,91712.56
2023-04-15T07:21:56.604Z,91715.41
2023-04-15T07:24:26.601Z,91707.94
2023-04-15T07:26:55.094Z,91717.06
2023-04-15T07:29:21.558Z,91710.13
2023-04-15T07:31:48.011Z,91706.72
2023-04-15T07:34:14.681Z,91712.31
2023-04-15T07:36:41.576Z,91715.03
2023-04-15T07:39:08.107Z,91718.06
2023-04-15T07:41:34.728Z,91717.84
2023-04-15T07:44:01.248Z,91715.94
2023-04-15T07:46:28.432Z,91724.19
2023-04-15T07:48:54.917Z,91724.16
2023-04-15T07:51:21.469Z,91716.59
2023-04-15T07:53:49.403Z,91729.72
2023-04-15T07:56:16.143Z,91722.91
2023-04-15T07:58:42.839Z,91730.00
2023-04-15T08:01:09.302Z,91731.69
2023-04-15T08:03:35.858Z,91730.31
2023-04-15T08:06:02.432Z,91733.53
2023-04-15T08:08:28.896Z,91738.72
2023-04-15T08:10:55.378Z,91736.84
2023-04-15T08:13:21.843Z,91739.13
2023-04-15T08:16:12.983Z,91737.56
2023-04-15T08:18:39.458Z,91744.50
2023-04-15T08:21:05.972Z,91746.44
2023-04-15T08:23:33.452Z,91753.59
2023-04-15T08:25:59.935Z,91752.72
2023-04-15T08:28:26.395Z,91750.09
2023-04-15T08:30:53.055Z,91755.84
2023-04-15T08:33:19.500Z,91749.63
2023-04-15T08:35:46.560Z,91754.28
2023-04-15T08:38:13.027Z,91756.69
2023-04-15T08:40:41.758Z,91750.97
2023-04-15T08:43:09.852Z,91759.41
2023-04-15T08:45:36.413Z,91756.94
2023-04-15T08:48:02.899Z,91764.22
2023-04-15T08:50:29.358Z,91771.47
2023-04-15T08:52:56.006Z,91768.69
2023-04-15T08:55:22.463Z,91774.81
2023-04-15T08:57:49.274Z,91783.66
2023-04-15T09:00:16.072Z,91779.72
2023-04-15T09:02:43.160Z,91778.78
2023-04-15T09:05:09.874Z,91775.44
2023-04-15T09:07:36.646Z,91768.47
2023-04-15T09:10:04.132Z,91771.91
2023-04-15T09:12:31.355Z,91780.09
2023-04-15T09:14:57.801Z,91783.72
2023-04-15T09:17:26.567Z,91781.16
2023-04-15T09:20:13.289Z,91788.63
2023-04-15T09:22:40.738Z,91786.09
2023-04-15T09:25:26.691Z,91788.22
2023-04-15T09:27:55.209Z,91792.44
2023-04-15T09:30:21.724Z,91793.19
2023-04-15T09:32:58.626Z,91781.47
2023-04-15T09:35:26.171Z,91787.19
2023-04-15T09:37:52.752Z,91798.28
2023-04-15T09:40:36.085Z,91799.34
2023-04-15T09:43:03.487Z,91794.91
2023-04-15T09:45:30.150Z,91809.44
2023-04-15T09:48:14.593Z,91801.56
2023-04-15T09:50:44.213Z,91808.72
2023-04-15T09:53:12.300Z,91805.47
2023-04-15T09:55:38.849Z,91810.59
2023-04-15T09:58:18.808Z,91821.13
2023-04-15T10:00:47.157Z,91827.47
2023-04-15T10:03:15.481Z,91824.25
2023-04-15T10:05:42.072Z,91818.03
2023-04-15T10:08:08.548Z,91831.06
2023-04-15T10:10:34.995Z,91843.09
2023-04-15T10:13:02.579Z,91827.88
2023-04-15T10:15:29.180Z,91840.44
2023-04-15T10:17:55.794Z,91839.75
2023-04-15T10:20:22.347Z,91844.19
2023-04-15T10:22:48.908Z,91838.06
2023-04-15T10:25:15.660Z,91839.78
2023-04-15T10:27:42.234Z,91837.13
2023-04-15T10:30:09.189Z,91841.50
2023-04-15T10:32:36.380Z,91842.66
2023-04-15T10:35:04.166Z,91839.03
2023-04-15T10:37:35.592Z,91851.06
2023-04-15T10:40:05.544Z,91855.13
2023-04-15T10:42:37.847Z,91853.13
2023-04-15T10:45:04.761Z,91864.69
2023-04-15T10:47:31.668Z,91868.34
2023-04-15T10:49:59.242Z,91861.03
2023-04-15T10:52:28.030Z,91867.38
2023-04-15T10:55:04.494Z,91876.22
2023-04-15T10:57:40.422Z,91882.59
2023-04-15T11:00:16.593Z,91881.25
2023-04-15T11:02:53.380Z,91885.16
2023-04-15T11:05:20.776Z,91890.44
2023-04-15T11:07:48.636Z,91899.19
2023-04-15T11:10:18.051Z,91895.75
2023-04-15T11:12:45.014Z,91896.75
2023-04-15T11:15:30.321Z,91903.38
2023-04-15T11:17:57.761Z,91910.44
2023-04-15T11:20:24.533Z,91901.47
2023-04-15T11:22:53.137Z,91904.75
2023-04-15T11:25:39.512Z,91907.06
2023-04-15T11:28:06.262Z,91898.28
2023-04-15T11:30:33.865Z,91915.66
2023-04-15T11:33:01.689Z,91910.44
2023-04-15T11:35:28.521Z,91905.56
2023-04-15T11:37:58.505Z,91913.19
2023-04-15T11:40:27.146Z,91916.28
2023-04-15T11:43:06.366Z,91917.91
2023-04-15T11:45:32.892Z,91927.03
2023-04-15T11:48:09.472Z,91929.81
2023-04-15T11:50:36.770Z,91921.66
2023-04-15T11:53:08.688Z,91929.66
2023-04-15T11:55:46.986Z,91934.91
2023-04-15T11:58:16.398Z,91939.91
2023-04-15T12:00:47.916Z,91934.06
2023-04-15T12:03:19.191Z,91952.69
2023-04-15T12:06:06.206Z,91948.03
2023-04-15T12:08:48.407Z,91962.75
2023-04-15T12:11:15.956Z,91964.72
2023-04-15T12:13:49.256Z,91973.72
2023-04-15T12:16:19.577Z,91968.31
2023-04-15T12:18:53.320Z,91972.16
2023-04-15T12:21:20.593Z,91968.03
2023-04-15T12:23:53.496Z,91979.06
2023-04-15T12:26:28.233Z,91982.91
2023-04-15T12:29:02.067Z,91985.59
2023-04-15T12:31:28.603Z,91987.84
2023-04-15T12:33:56.138Z,92007.59
2023-04-15T12:36:23.514Z,92000.97
2023-04-15T12:38:50.430Z,92000.97
2023-04-15T12:41:16.928Z,92010.03
2023-04-15T12:43:49.232Z,92009.34
2023-04-15T12:46:15.842Z,92010.59
2023-04-15T12:48:42.536Z,92020.47
2023-04-15T12:51:08.991Z,92027.03
2023-04-15T12:53:35.642Z,92022.63
2023-04-15T12:56:02.269Z,92042.22
2023-04-15T12:58:28.822Z,92030.81
2023-04-15T13:00:55.316Z,92046.81
2023-04-15T13:03:21.924Z,92048.66
2023-04-15T13:05:48.503Z,92056.72
2023-04-15T13:08:15.009Z,92044.78
2023-04-15T13:10:42.437Z,92052.69
2023-04-15T13:13:08.986Z,92054.16
2023-04-15T13:15:35.502Z,92055.25
2023-04-15T13:18:02.125Z,92071.81
2023-04-15T13:20:28.658Z,92067.88
2023-04-15T13:22:55.195Z,92070.78
2023-04-15T13:25:21.773Z,92076.31
2023-04-15T13:27:48.255Z,92081.25
2023-04-15T13:30:14.765Z,92076.72
2023-04-15T13:32:41.248Z,92073.03
2023-04-15T13:35:08.150Z,92080.38
2023-04-15T13:37:34.616Z,92089.22
2023-04-15T13:40:01.660Z,92076.59
2023-04-15T13:42:28.165Z,92097.38
2023-04-15T13:44:54.704Z,92098.13
2023-04-15T13:47:21.365Z,92104.53
2023-04-15T13:49:47.884Z,92113.31
2023-04-15T13:52:14.375Z,92114.22
2023-04-15T13:54:40.910Z,92123.06
2023-04-15T13:57:07.474Z,92115.91
2023-04-15T13:59:34.959Z,92122.75
2023-04-15T14:02:01.718Z,92138.59
2023-04-15T14:04:28.418Z,92118.19
2023-04-15T14:06:55.075Z,92132.31
2023-04-15T14:09:26.158Z,92120.19
2023-04-15T14:11:53.016Z,92135.03
2023-04-15T14:14:19.490Z,92137.38
2023-04-15T14:16:46.084Z,92139.25
2023-04-15T14:19:12.792Z,92144.47
2023-04-15T14:21:39.290Z,92141.31
2023-04-15T14:24:06.048Z,92147.25
2023-04-15T14:26:32.574Z,92146.28
2023-04-15T14:28:59.038Z,92162.94
2023-04-15T14:31:25.629Z,92156.16
2023-04-15T14:33:52.256Z,92167.50
2023-04-15T14:36:18.730Z,92165.38
2023-04-15T14:38:46.145Z,92178.66
2023-04-15T14:41:13.940Z,92178.09
2023-04-15T14:43:40.530Z,92178.94
2023-04-15T14:46:08.345Z,92194.06
2023-04-15T14:48:34.923Z,92191.00
2023-04-15T14:51:02.564Z,92198.69
2023-04-15T14:53:29.038Z,92204.75
2023-04-15T14:55:55.526Z,92205.53
2023-04-15T14:58:22.355Z,92197.63
2023-04-15T15:00:48.811Z,92203.56
2023-04-15T15:03:15.759Z,92215.38
2023-04-15T15:05:42.981Z,92217.88
2023-04-15T15:08:09.568Z,92221.22
2023-04-15T15:10:49.498Z,92233.22
2023-04-15T15:13:16.494Z,92229.19
2023-04-15T15:15:43.022Z,92243.31
2023-04-15T15:18:10.382Z,92230.75
2023-04-15T15:20:36.923Z,92243.31
2023-04-15T15:23:03.363Z,92240.50
2023-04-15T15:25:29.921Z,92252.03
2023-04-15T15:27:57.538Z,92244.72
2023-04-15T15:30:24.102Z,92260.47
2023-04-15T15:32:50.765Z,92253.44
2023-04-15T15:35:17.330Z,92254.00
2023-04-15T15:37:43.790Z,92248.91
2023-04-15T15:40:10.779Z,92264.44
2023-04-15T15:42:37.305Z,92271.88
2023-04-15T15:45:04.093Z,92269.94
2023-04-15T15:47:31.039Z,92267.41
2023-04-15T15:49:57.561Z,92276.84
2023-04-15T15:52:23.998Z,92283.75
2023-04-15T15:54:50.490Z,92283.13
2023-04-15T15:57:16.974Z,92282.38
2023-04-15T15:59:43.678Z,92291.94
2023-04-15T16:02:10.801Z,92298.25
2023-04-15T16:04:38.166Z,92305.59
2023-04-15T16:07:05.051Z,92308.44
2023-04-15T16:09:31.950Z,92309.09
2023-04-15T16:11:58.650Z,92311.03
2023-04-15T16:14:25.944Z,92309.41
2023-04-15T16:16:53.014Z,92311.53
2023-04-15T16:19:20.603Z,92320.47
2023-04-15T16:21:47.678Z,92318.81
2023-04-15T16:24:14.554Z,92329.31
2023-04-15T16:26:41.540Z,92329.31
2023-04-15T16:29:08.097Z,92339.16
2023-04-15T16:31:35.504Z,92343.53
2023-04-15T16:34:02.523Z,92349.38
2023-04-15T16:36:29.064Z,92352.41
2023-04-15T16:38:55.913Z,92366.13
2023-04-15T16:41:22.505Z,92360.44
2023-04-15T16:43:48.972Z,92358.72
2023-04-15T16:46:15.652Z,92361.34
2023-04-15T16:48:42.211Z,92356.81
2023-04-15T16:51:08.659Z,92362.66
2023-04-15T16:53:35.381Z,92368.41
2023-04-15T16:56:01.884Z,92368.97
2023-04-15T16:58:28.792Z,92361.06
2023-04-15T17:00:55.362Z,92372.19
2023-04-15T17:03:22.023Z,92369.34
2023-04-15T17:05:48.663Z,92384.47
2023-04-15T17:08:15.122Z,92389.41
2023-04-15T17:10:41.645Z,92389.41
2023-04-15T17:13:08.158Z,92398.31
2023-04-15T17:15:34.860Z,92401.84
2023-04-15T17:18:01.967Z,92410.97
2023-04-15T17:20:28.573Z,92406.22
2023-04-15T17:22:55.057Z,92413.94
2023-04-15T17:25:21.706Z,92418.44
2023-04-15T17:27:48.183Z,92417.44
2023-04-15T17:30:14.654Z,92414.44
2023-04-15T17:32:41.177Z,92425.56
2023-04-15T17:35:08.075Z,92429.81
2023-04-15T17:37:34.581Z,92440.22
2023-04-15T17:40:01.238Z,92451.19
2023-04-15T17:42:27.751Z,92459.22
2023-04-15T17:44:54.218Z,92463.16
2023-04-15T17:47:20.732Z,92466.81
2023-04-15T17:49:47.689Z,92474.13
2023-04-15T17:52:14.276Z,92475.41
2023-04-15T17:54:40.794Z,92472.59
2023-04-15T17:57:07.263Z,92482.03
2023-04-15T17:59:34.076Z,92486.19
2023-04-15T18:02:00.825Z,92495.75
2023-04-15T18:04:27.539Z,92492.16
2023-04-15T18:06:54.264Z,92494.69
2023-04-15T18:09:20.907Z,92503.66
2023-04-15T18:11:48.658Z,92509.03
2023-04-15T18:14:23.567Z,92510.34
2023-04-15T18:16:59.867Z,92502.25
2023-04-15T18:19:26.381Z,92510.16
2023-04-15T18:21:52.930Z,92506.25
2023-04-15T18:24:19.466Z,92520.41
2023-04-15T18:26:48.766Z,92520.50
2023-04-15T18:29:15.532Z,92527.78
2023-04-15T18:31:42.081Z,92524.94
2023-04-15T18:34:08.604Z,92536.69
2023-04-15T18:36:35.062Z,92537.41
2023-04-15T18:39:01.625Z,92536.16
2023-04-15T18:41:28.118Z,92540.16
2023-04-15T18:43:56.018Z,92542.97
2023-04-15T18:46:22.488Z,92544.59
2023-04-15T18:48:48.946Z,92552.16
2023-04-15T18:51:15.567Z,92553.09
2023-04-15T18:53:42.052Z,92559.78
2023-04-15T18:56:08.511Z,92569.25
2023-04-15T18:59:18.470Z,92568.63
2023-04-15T19:01:21.490Z,92574.13
2023-04-15T19:03:48.011Z,92580.97
2023-04-15T19:06:14.495Z,92582.34
2023-04-15T19:08:40.946Z,92589.72
2023-04-15T19:11:07.415Z,92589.28
2023-04-15T19:13:33.890Z,92592.72
2023-04-15T19:16:00.425Z,92591.88
2023-04-15T19:18:26.958Z,92599.47
2023-04-15T19:20:55.781Z,92596.13
2023-04-15T19:23:23.037Z,92603.94
2023-04-15T19:25:49.649Z,92601.13
2023-04-15T19:28:16.149Z,92598.88
2023-04-15T19:30:42.798Z,92601.25
2023-04-15T19:33:09.261Z,92603.19
2023-04-15T19:35:36.060Z,92607.69
2023-04-15T19:38:03.181Z,92615.63
2023-04-15T19:40:29.681Z,92613.69
2023-04-15T19:42:56.127Z,92611.00
2023-04-15T19:45:22.619Z,92610.88
2023-04-15T19:47:49.233Z,92622.81
2023-04-15T19:50:16.889Z,92619.38
2023-04-15T19:52:43.406Z,92626.97
2023-04-15T19:55:09.957Z,92631.28
2023-04-15T19:57:36.473Z,92630.22
2023-04-15T20:00:03.230Z,92636.34
2023-04-15T20:02:29.927Z,92635.16
2023-04-15T20:04:56.519Z,92648.44
2023-04-15T20:07:23.034Z,92651.75
2023-04-15T20:09:51.597Z,92654.44
2023-04-15T20:12:50.206Z,92657.13
2023-04-15T20:15:06.238Z,92652.50
2023-04-15T20:17:33.453Z,92652.09
2023-04-15T20:19:59.983Z,92647.03
2023-04-15T20:22:26.495Z,92653.44
2023-04-15T20:24:52.945Z,92657.63
2023-04-15T20:27:20.577Z,92653.75
2023-04-15T20:29:47.103Z,92654.06
2023-04-15T20:32:13.606Z,92647.94
2023-04-15T20:34:40.518Z,92654.41
2023-04-15T20:37:07.318Z,92650.94
2023-04-15T20:39:34.063Z,92643.22
2023-04-15T20:42:01.463Z,92653.69
2023-04-15T20:44:27.990Z,92655.84
2023-04-15T20:46:54.489Z,92662.69
2023-04-15T20:49:20.994Z,92655.84
2023-04-15T20:51:47.575Z,92659.13
2023-04-15T20:54:14.647Z,92661.81
2023-04-15T20:56:41.108Z,92660.19
2023-04-15T20:59:07.742Z,92667.06
2023-04-15T21:01:34.300Z,92676.94
2023-04-15T21:04:01.141Z,92671.44
2023-04-15T21:06:27.665Z,92672.50
2023-04-15T21:08:54.139Z,92672.81
2023-04-15T21:11:40.637Z,92682.69
2023-04-15T21:14:08.522Z,92690.09
2023-04-15T21:16:35.103Z,92697.41
2023-04-15T21:19:01.639Z,92697.41
2023-04-15T21:21:28.442Z,92701.72
2023-04-15T21:23:55.235Z,92702.78
2023-04-15T21:26:21.750Z,92699.78
2023-04-15T21:28:48.252Z,92693.81
2023-04-15T21:31:14.723Z,92695.53
2023-04-15T21:33:41.190Z,92693.72
2023-04-15T21:36:07.729Z,92697.09
2023-04-15T21:38:34.317Z,92701.19
2023-04-15T21:41:01.612Z,92697.34
2023-04-15T21:43:28.066Z,92700.56
2023-04-15T21:46:22.035Z,92697.88
2023-04-15T21:48:41.315Z,92710.88
2023-04-15T21:51:07.789Z,92697.81
2023-04-15T21:53:34.850Z,92706.72
2023-04-15T21:56:01.644Z,92706.28
2023-04-15T21:58:28.118Z,92712.63
2023-04-15T22:00:59.918Z,92720.53
2023-04-15T22:03:29.393Z,92732.34
2023-04-15T22:05:56.186Z,92726.09
2023-04-15T22:08:22.643Z,92728.38
2023-04-15T22:10:49.111Z,92732.34
2023-04-15T22:13:16.231Z,92733.84
2023-04-15T22:15:42.846Z,92721.59
2023-04-15T22:18:09.366Z,92721.72
2023-04-15T22:20:35.869Z,92723.22
2023-04-15T22:23:07.521Z,92726.34
2023-04-15T22:25:34.610Z,92739.66
2023-04-15T22:28:01.682Z,92734.59
2023-04-15T22:30:28.131Z,92734.72
2023-04-15T22:32:54.610Z,92739.56
2023-04-15T22:35:21.271Z,92737.75
2023-04-15T22:37:48.202Z,92739.38
2023-04-15T22:40:14.723Z,92727.56
2023-04-15T22:42:41.239Z,92736.47
2023-04-15T22:45:08.100Z,92741.09
2023-04-15T22:47:34.576Z,92731.41
2023-04-15T22:50:01.178Z,92732.84
2023-04-15T22:52:31.011Z,92732.94
2023-04-15T22:54:58.154Z,92744.53
2023-04-15T22:57:24.688Z,92749.91
2023-04-15T22:59:51.352Z,92751.41
2023-04-15T23:02:18.032Z,92749.16
2023-04-15T23:04:45.302Z,92746.16
2023-04-15T23:07:11.955Z,92751.84
2023-04-15T23:09:38.974Z,92757.97
2023-04-15T23:12:06.264Z,92756.78
2023-04-15T23:14:32.743Z,92751.72
2023-04-15T23:16:59.195Z,92761.94
2023-04-15T23:19:25.700Z,92758.06
2023-04-15T23:21:52.507Z,92769.09
2023-04-15T23:24:18.958Z,92766.09
2023-04-15T23:26:45.545Z,92767.91
2023-04-15T23:29:12.164Z,92769.19
2023-04-15T23:31:38.746Z,92778.53
2023-04-15T23:34:06.388Z,92782.59
2023-04-15T23:36:32.919Z,92774.97
2023-04-15T23:38:59.363Z,92777.78
2023-04-15T23:41:25.920Z,92768.63
2023-04-15T23:43:52.387Z,92776.38
2023-04-15T23:46:18.878Z,92781.75
2023-04-15T23:48:47.681Z,92781.00
2023-04-15T23:51:14.156Z,92774.44
2023-04-15T23:53:40.713Z,92779.06
2023-04-15T23:56:07.515Z,92773.38
2023-04-15T23:58:34.662Z,92777.25
